AirNav   Air Wisconsin pilot careers
 
 617 users online  

D00 Norman County Ada/Twin Valley Airport
Ada/Twin Valley, Minnesota, USA


FAA INFORMATION EFFECTIVE 09 NOVEMBER 2017

Location

FAA Identifier: D00
Lat/Long: 47-15-37.6830N / 096-24-00.9500W
47-15.628050N / 096-24.015833W
47.2604675 / -96.4002639
(estimated)
Elevation: 954 ft. / 291 m (estimated)
Variation: 05E (2000)
From city: 5 miles SE of central business district of the associated city
Time zone: UTC -6 (UTC -5 during Daylight Saving Time)
Zip code: 56584

Airport Operations

Airport use: Open to the public
Activation date: 09/1978
Control tower: no
ARTCC: MINNEAPOLIS CENTER
FSS: PRINCETON FLIGHT SERVICE STATION
NOTAMs facility: PNM (NOTAM-D service available)
Attendance: UNATNDD
Pattern altitude: 1754 ft. MSL
Wind indicator: lighted
Segmented circle: no
Lights: SS-SR
Beacon: white-green (lighted land airport)
Operates sunset to sunrise.

Airport Communications

CTAF: 122.9
FARGO APPROACH: 120.4
FARGO DEPARTURE: 120.4
WX AWOS-3PT at 3N8 (19 nm E): 121.125 (218-936-2507)

Nearby radio navigation aids

VOR radial/distance  VOR name  Freq  Var
DTLr316/33.5DETROIT LAKES VOR/DME111.2005E
FARr022/35.6FARGO VOR/DME116.2009E

 
NDB name  Hdg/Dist  Freq  Var  ID
FOSSTON229/32.322403EFSE ..-. ... .
CROOKSTON163/35.940003ECKN -.-. -.- -.

Airport Services

Fuel available: 100LL
FUEL AVAIL 24 HOUR WITH CREDIT CARD.
Parking: tiedowns

Runway Information

Runway 15/33

Dimensions: 3103 x 60 ft. / 946 x 18 m
Surface: asphalt, in fair condition
CRACKING AND SURFACE EROSION.
Runway edge lights: low intensity
SEVERAL LIGHTS LEANING.
RUNWAY 15  RUNWAY 33
Latitude: 47-15.857617N47-15.398467N
Longitude: 096-24.179600W096-23.852067W
Elevation: 938.0 ft.954.0 ft.
Gradient: 0.5%0.5%
Traffic pattern: leftleft
Runway heading: 149 magnetic, 154 true329 magnetic, 334 true
Markings: nonprecision, in fair conditionnonprecision, in fair condition
Touchdown point: yes, no lightsyes, no lights

Airport Ownership and Management from official FAA records

Ownership: Publicly-owned
Owner: CNTY NORMAN & ADA-TWIN VALLEY
PO BOX 32
ADA, MN 56510
Phone 218-784-5520
Manager: BRUCE VISSER
P.O. BOX 9
ADA, MN 56510
Phone 218-784-2962
ARPT MGR WORK PHONE 218-784-4381.

Airport Operational Statistics

Aircraft based on the field: 8
Single engine airplanes: 8
    
Aircraft operations: avg 100/week *
58% local general aviation
42% transient general aviation
* for 12-month period ending 30 June 2015

Additional Remarks

A58-33 RWY 33 HAS 5 FT BRUSH 14 FT FROM THE RWY END AND 81 FT R
A58-15 RWY 15 HAS 4 FT BRUSH 36 FT FROM THE RWY END AND 83 FT L
ULTRALIGHTS ON & INVOF ARPT.

Instrument Procedures

NOTE: All procedures below are presented as PDF files. If you need a reader for these files, you should download the free Adobe Reader.

NOT FOR NAVIGATION. Please procure official charts for flight.
FAA instrument procedures published for use between 9 November 2017 at 0901Z and 7 December 2017 at 0900Z.

 
IAPs - Instrument Approach Procedures
RNAV (GPS) RWY 33   download (152KB)
NOTE: Special Take-Off Minimums/Departure Procedures apply   download (156KB)

Other nearby airports with instrument procedures:

3N8 - Mahnomen County Airport (19 nm E)
04Y - Hawley Municipal Airport (23 nm S)
KFAR - Hector International Airport (27 nm SW)
KJKJ - Moorhead Municipal Airport (27 nm SW)
3H4 - Hillsboro Municipal Airport (28 nm W)
 
Loc | Ops | Rwys | IFR | FBO | Links
Com | Nav | Svcs | Stats | Notes


 
Area around D00 (Norman County Ada/Twin Valley Airport)
 
Road maps at: MapQuest Bing Google
 
Aerial photo
No photo
 
Sectional chart

 
Airport distance calculator
Flying to Norman County Ada/Twin Valley Airport? Find the distance to fly.

From to D00

Sunrise and sunset
Times for 23-Nov-2017
 Local
(UTC-6)
 Zulu
(UTC)
Morning civil twilight07:0813:08
Sunrise07:4213:42
Sunset16:4222:42
Evening civil twilight17:1623:16

Current date and time
Zulu (UTC)  23-Nov-2017 23:44:53
Local (UTC-6)  23-Nov-2017 17:44:53
 
METAR
K3N8 
19nm E 
232335Z AUTO 18011KT 10SM CLR 03/M01 A2955 RMK AO2 T00301015
KFAR 
26nm SW 
232253Z 17012KT 10SM CLR 07/M01 A2957 RMK AO2 SLP022 T00721006
KJKJ 
28nm SW 
232334Z AUTO 16013KT 10SM CLR 05/M02 A2957 RMK AO2
KFSE 
32nm NE 
232334Z AUTO 18009KT 10SM CLR 01/M02 A2954 RMK AO2
KDTL 
34nm SE 
232333Z AUTO 16008KT 10SM CLR 03/M01 A2960 RMK AO2
KCKN 
36nm N 
232334Z AUTO 18013KT 10SM CLR 03/M02 A2951 RMK AO2
TAF
KFAR 
26nm SW 
232108Z 2321/2418 18010KT P6SM SCT250 FM240500 21009KT P6SM BKN200 FM241500 25013KT P6SM BKN080 FM241600 29027G40KT P6SM BKN110
NOTAMs
Click for the latest NOTAMs
NOTAMs are issued by the DoD/FAA and will open in a separate window not controlled by AirNav.

 

 
 

FBO, Fuel Providers, and Aircraft Ground Support

  
 Business Name 
 
 Contact 
 
 Services / Description 
 
Fuel Prices
 
Comments
  
Norman County-Ada-Twin Valley Airport 218-415-0191
no information available

If you are affiliated with Norman County-Ada-Twin Valley Airport and would like to show here your services, contact info, web link, logo, and more, click here
100LL
SS $3.85 
 Updated 27-Aug-2017
 
   write
SS=Self service
Update Fuel Prices
 

Would you like to see your business listed on this page?

 If your business provides an interesting product or service to pilots, flight crews, aircraft, or users of the Norman County Ada/Twin Valley Airport, you should consider listing it here.  To start the listing process, click on the button below
 
Add a business
 

Other Pages about Norman County Ada/Twin Valley Airport

PDF page(s) from the Minnesota Airport Directory
 
Update a link
 
Copyright © AirNav, LLC. All rights reserved. Privacy Policy  Contact